Time;durP1;ratioP1;P1;durP2;ratioP2;P2;SDS_P1;SDS_P2;PMS_P1;PMS_P2;Temp;Humidity;BMP_temperature;BMP_pressure;BME280_temperature;BME280_humidity;BME280_pressure;Samples;Min_cycle;Max_cycle;Signal;HPM_P1;HPM_P2
2022/08/25 00:02:11;;;;;;;4.82;3.47;;;;;;;21.41;54.47;100426.78;5074578;28;20056;-58
2022/08/25 00:04:39;;;;;;;5.22;3.40;;;;;;;21.38;54.70;100426.78;5074311;28;20060;-58
2022/08/25 00:07:06;;;;;;;4.50;3.53;;;;;;;21.33;54.62;100418.63;5074888;28;20053;-58
2022/08/25 00:09:35;;;;;;;5.45;3.67;;;;;;;21.29;54.63;100424.25;5088902;28;20048;-58
2022/08/25 00:12:03;;;;;;;7.60;3.42;;;;;;;21.23;54.78;100422.97;5094360;28;20052;-58
2022/08/25 00:14:33;;;;;;;5.07;3.60;;;;;;;21.21;55.08;100422.56;5092794;28;20525;-58
2022/08/25 00:17:03;;;;;;;4.95;3.65;;;;;;;21.17;54.82;100433.84;5073855;28;20045;-58
2022/08/25 00:19:37;;;;;;;4.90;3.65;;;;;;;21.15;54.79;100427.75;5074288;28;20485;-58
2022/08/25 00:22:08;;;;;;;5.15;3.35;;;;;;;21.13;55.01;100432.19;5077641;28;20047;-58
2022/08/25 00:24:36;;;;;;;4.13;3.25;;;;;;;21.06;55.11;100428.06;5054092;28;20057;-57
2022/08/25 00:27:05;;;;;;;5.40;3.65;;;;;;;21.07;55.11;100429.69;5074080;28;20060;-57
2022/08/25 00:29:36;;;;;;;3.77;3.37;;;;;;;21.05;55.17;100429.25;5074260;28;20441;-57
2022/08/25 00:32:06;;;;;;;4.25;3.53;;;;;;;21.00;55.46;100438.09;5074039;28;21018;-56
2022/08/25 00:34:36;;;;;;;4.75;3.50;;;;;;;20.97;55.38;100435.22;5079834;28;20048;-57
2022/08/25 00:37:09;;;;;;;3.88;3.30;;;;;;;20.94;55.50;100438.84;5088918;28;20071;-57
2022/08/25 00:39:37;;;;;;;4.57;3.25;;;;;;;20.92;55.54;100429.91;5088351;28;20067;-57
2022/08/25 00:42:09;;;;;;;6.07;3.50;;;;;;;20.89;55.42;100434.31;5070108;28;20048;-57
2022/08/25 00:44:37;;;;;;;3.97;3.55;;;;;;;20.83;55.60;100441.50;5079395;28;20047;-57
2022/08/25 00:47:07;;;;;;;6.00;3.63;;;;;;;20.80;55.82;100439.47;5088679;28;20059;-57
2022/08/25 00:49:38;;;;;;;6.10;3.70;;;;;;;20.77;55.75;100440.25;5091074;28;20048;-57
2022/08/25 00:52:09;;;;;;;4.55;3.30;;;;;;;20.73;56.09;100430.91;5080578;28;20044;-57
2022/08/25 00:54:42;;;;;;;4.90;3.38;;;;;;;20.70;55.42;100437.31;5090739;28;20056;-57
2022/08/25 00:57:15;;;;;;;5.78;3.40;;;;;;;20.67;55.75;100436.06;5085685;28;20055;-57
2022/08/25 00:59:43;;;;;;;3.88;3.00;;;;;;;20.62;56.01;100436.38;5089885;28;20428;-57
2022/08/25 01:02:15;;;;;;;5.20;3.17;;;;;;;20.61;55.86;100441.25;5080913;28;21057;-58
2022/08/25 01:04:43;;;;;;;4.88;2.92;;;;;;;20.56;55.92;100438.72;5090856;28;20048;-57
2022/08/25 01:07:11;;;;;;;5.60;3.28;;;;;;;20.57;55.75;100443.19;5091389;28;20487;-57
2022/08/25 01:09:39;;;;;;;4.50;3.15;;;;;;;20.52;55.96;100442.72;5087802;28;20059;-57
2022/08/25 01:12:06;;;;;;;5.90;3.25;;;;;;;20.49;55.97;100432.97;5086412;28;20052;-57
2022/08/25 01:14:35;;;;;;;4.35;3.25;;;;;;;20.44;55.97;100430.47;5072743;28;20056;-57
2022/08/25 01:17:05;;;;;;;7.23;3.27;;;;;;;20.43;56.23;100431.66;5073374;28;20044;-57
2022/08/25 01:19:34;;;;;;;4.15;3.33;;;;;;;20.39;56.15;100433.63;5072653;28;20075;-57
2022/08/25 01:22:04;;;;;;;4.10;3.20;;;;;;;20.39;55.93;100428.78;5073073;28;20053;-57
2022/08/25 01:24:38;;;;;;;7.35;3.20;;;;;;;20.35;56.07;100432.75;5090159;28;20052;-57
2022/08/25 01:27:07;;;;;;;3.95;3.35;;;;;;;20.33;56.29;100435.19;5090415;28;20048;-57
2022/08/25 01:29:35;;;;;;;4.45;3.15;;;;;;;20.31;56.54;100431.91;5072777;28;20063;-57
2022/08/25 01:32:08;;;;;;;5.63;3.22;;;;;;;20.30;56.53;100433.09;5073063;28;20052;-58
2022/08/25 01:34:39;;;;;;;5.65;3.40;;;;;;;20.24;56.45;100433.44;5071135;28;20390;-58
2022/08/25 01:37:09;;;;;;;6.07;3.33;;;;;;;20.22;56.63;100435.84;5071920;28;20048;-58
2022/08/25 01:39:37;;;;;;;3.85;3.13;;;;;;;20.20;56.60;100435.41;5077219;28;20048;-58
2022/08/25 01:42:23;;;;;;;3.60;3.20;;;;;;;20.17;56.63;100436.13;5093408;28;20060;-58
2022/08/25 01:44:54;;;;;;;4.03;3.25;;;;;;;20.15;56.69;100432.06;5070919;28;20052;-58
2022/08/25 01:47:21;;;;;;;4.93;3.40;;;;;;;20.11;56.63;100436.84;5072237;28;20048;-58
2022/08/25 01:49:48;;;;;;;6.85;3.28;;;;;;;20.08;56.82;100435.59;5072508;28;20052;-57
2022/08/25 01:52:37;;;;;;;6.00;3.53;;;;;;;20.06;56.85;100438.00;5062933;28;20060;-58
2022/08/25 01:55:05;;;;;;;6.60;3.17;;;;;;;20.04;56.97;100434.75;5053163;28;20060;-59
2022/08/25 01:57:33;;;;;;;4.00;3.10;;;;;;;20.01;57.09;100435.47;5072367;28;20057;-58
2022/08/25 02:00:00;;;;;;;6.57;4.00;;;;;;;19.97;57.08;100440.25;5072713;28;20057;-57
2022/08/25 02:02:28;;;;;;;4.95;3.65;;;;;;;19.94;57.14;100435.38;5053872;28;20063;-57
2022/08/25 02:04:55;;;;;;;4.78;3.10;;;;;;;19.93;57.34;100428.91;5068211;28;20075;-57
2022/08/25 02:07:24;;;;;;;4.18;3.35;;;;;;;19.90;57.24;100432.47;5072479;28;20057;-57
2022/08/25 02:09:51;;;;;;;5.65;3.60;;;;;;;19.89;57.09;100430.06;5073229;28;20053;-57
2022/08/25 02:12:19;;;;;;;4.43;3.60;;;;;;;19.85;57.30;100421.50;5072481;28;20079;-57
2022/08/25 02:14:47;;;;;;;5.65;3.00;;;;;;;19.83;57.37;100429.56;5072173;28;20059;-57
2022/08/25 02:17:16;;;;;;;5.03;3.08;;;;;;;19.83;57.66;100423.91;5072868;28;20059;-57
2022/08/25 02:19:43;;;;;;;4.40;3.50;;;;;;;19.79;57.41;100440.78;5072332;28;20428;-57
2022/08/25 02:22:10;;;;;;;4.95;3.35;;;;;;;19.79;57.28;100435.13;5072678;28;20056;-57
2022/08/25 02:24:39;;;;;;;6.18;3.30;;;;;;;19.76;57.44;100424.59;5079775;28;20056;-57
2022/08/25 02:27:07;;;;;;;4.37;3.23;;;;;;;19.74;57.42;100418.50;5072290;28;20489;-57
2022/08/25 02:29:34;;;;;;;3.88;3.00;;;;;;;19.74;57.65;100431.81;5072048;28;20458;-56
2022/08/25 02:32:02;;;;;;;6.57;3.30;;;;;;;19.70;57.26;100426.13;5072188;28;20056;-57
2022/08/25 02:34:29;;;;;;;5.60;3.00;;;;;;;19.67;57.25;100429.66;5071991;28;20410;-57
2022/08/25 02:36:57;;;;;;;4.35;3.35;;;;;;;19.66;57.41;100428.03;5070240;28;20059;-62
2022/08/25 02:39:24;;;;;;;6.05;3.42;;;;;;;19.63;57.36;100425.94;5089672;28;20059;-62
2022/08/25 02:41:53;;;;;;;5.80;3.92;;;;;;;19.59;57.80;100430.72;5076391;28;20377;-62
2022/08/25 02:44:20;;;;;;;3.63;3.33;;;;;;;19.54;57.43;100426.19;5076086;28;20055;-62
2022/08/25 02:46:47;;;;;;;5.05;3.38;;;;;;;19.53;57.54;100427.41;5076830;28;20044;-62
2022/08/25 02:49:15;;;;;;;3.65;3.10;;;;;;;19.50;57.40;100427.34;5076222;28;20067;-64
2022/08/25 02:51:42;;;;;;;4.05;3.20;;;;;;;19.44;58.10;100430.50;5077448;28;20397;-62
2022/08/25 02:54:10;;;;;;;3.50;3.13;;;;;;;19.41;57.99;100425.56;5095335;28;20060;-64
2022/08/25 02:56:37;;;;;;;5.13;3.58;;;;;;;19.39;58.13;100425.13;5079612;28;20048;-64
2022/08/25 02:59:06;;;;;;;4.97;3.70;;;;;;;19.40;58.25;100426.78;5076337;28;20059;-57
2022/08/25 03:01:34;;;;;;;3.45;3.15;;;;;;;19.38;58.22;100412.22;5085758;28;20060;-57
2022/08/25 03:04:02;;;;;;;4.85;3.15;;;;;;;19.37;58.20;100418.22;5096519;28;20052;-57
2022/08/25 03:06:30;;;;;;;4.93;3.30;;;;;;;19.35;58.00;100420.63;5089341;28;20052;-57
2022/08/25 03:08:57;;;;;;;4.85;3.70;;;;;;;19.31;58.10;100403.59;5095823;28;20059;-57
2022/08/25 03:11:25;;;;;;;3.78;3.38;;;;;;;19.30;58.13;100403.97;5085458;28;20409;-57
2022/08/25 03:13:52;;;;;;;5.90;3.60;;;;;;;19.29;58.07;100410.81;5075861;28;20500;-57
2022/08/25 03:16:21;;;;;;;4.22;3.83;;;;;;;19.27;58.57;100406.34;5075310;28;20048;-58
2022/08/25 03:18:49;;;;;;;4.28;3.42;;;;;;;19.25;58.38;100416.41;5075255;28;20048;-57
2022/08/25 03:21:17;;;;;;;4.40;3.83;;;;;;;19.23;58.99;100408.31;5076513;28;20045;-57
2022/08/25 03:23:45;;;;;;;4.85;3.92;;;;;;;19.24;59.28;100403.47;5075618;28;20063;-57
2022/08/25 03:29:09;;;;;;;5.70;4.10;;;;;;;19.23;59.32;100399.84;5014598;28;20052;-57
2022/08/25 03:31:38;;;;;;;4.72;3.70;;;;;;;19.22;59.05;100388.91;5060170;28;20044;-57
2022/08/25 03:34:06;;;;;;;5.28;3.78;;;;;;;19.20;59.17;100392.09;5075418;28;20064;-57
2022/08/25 03:36:33;;;;;;;4.07;3.58;;;;;;;19.19;58.75;100390.50;5072102;28;20052;-57
2022/08/25 03:39:00;;;;;;;5.13;3.80;;;;;;;19.16;59.35;100391.22;5092375;28;20044;-57
2022/08/25 03:41:31;;;;;;;7.97;3.90;;;;;;;19.18;59.44;100382.38;5092821;28;20499;-57
2022/08/25 03:43:58;;;;;;;4.25;3.75;;;;;;;19.13;59.90;100391.16;5075040;28;20059;-57
2022/08/25 03:46:27;;;;;;;7.43;4.10;;;;;;;19.15;59.83;100391.59;5074678;28;20055;-57
2022/08/25 03:48:57;;;;;;;5.53;3.92;;;;;;;19.14;59.65;100398.44;5084507;28;20052;-57
2022/08/25 03:51:27;;;;;;;5.82;3.92;;;;;;;19.13;59.69;100391.16;5093823;28;20051;-57
2022/08/25 03:53:55;;;;;;;5.68;3.97;;;;;;;19.06;60.07;100400.31;5075458;28;20061;-57
2022/08/25 03:56:23;;;;;;;5.55;3.80;;;;;;;19.03;59.90;100396.22;5074939;28;20053;-57
2022/08/25 03:58:50;;;;;;;6.05;3.70;;;;;;;18.99;59.97;100397.34;5074331;28;20048;-58
2022/08/25 04:01:17;;;;;;;5.85;3.55;;;;;;;18.97;60.12;100394.91;5084934;28;20063;-57
2022/08/25 04:03:46;;;;;;;4.57;3.85;;;;;;;18.95;59.96;100390.81;5079465;28;20057;-57
2022/08/25 04:06:17;;;;;;;5.38;4.00;;;;;;;18.86;60.11;100385.41;5094599;28;20489;-57
2022/08/25 04:08:44;;;;;;;4.00;3.60;;;;;;;18.85;60.16;100383.78;5080667;28;20045;-57
2022/08/25 04:11:16;;;;;;;4.13;3.58;;;;;;;18.84;60.19;100382.16;5074631;28;20519;-57
2022/08/25 04:13:45;;;;;;;8.20;4.55;;;;;;;18.83;60.45;100383.31;5074431;28;20503;-57
2022/08/25 04:16:14;;;;;;;4.93;4.05;;;;;;;18.79;60.20;100382.44;5074825;28;20052;-57
2022/08/25 04:18:41;;;;;;;8.30;4.35;;;;;;;18.73;60.52;100381.06;5076587;28;20055;-57
2022/08/25 04:21:11;;;;;;;5.57;3.92;;;;;;;18.74;60.35;100385.53;5094862;28;20052;-57
2022/08/25 04:23:40;;;;;;;;;;;;;;;18.64;60.78;100384.94;5085785;28;20489;-57
2022/08/25 04:26:11;;;;;;;4.70;4.20;;;;;;;18.65;60.71;100380.94;5074262;28;19921;-57
2022/08/25 04:28:39;;;;;;;7.50;4.05;;;;;;;18.66;60.85;100382.56;5073657;28;20044;-57
2022/08/25 04:31:08;;;;;;;5.80;3.80;;;;;;;18.68;60.98;100373.72;5074257;28;20053;-57
2022/08/25 04:33:36;;;;;;;5.78;3.95;;;;;;;18.66;61.04;100368.44;5075415;28;20056;-57
2022/08/25 04:36:06;;;;;;;5.72;4.63;;;;;;;18.65;61.39;100366.84;5087389;28;20059;-57
2022/08/25 04:38:33;;;;;;;8.35;4.00;;;;;;;18.64;61.02;100359.53;5089748;28;20044;-57
2022/08/25 04:41:05;;;;;;;5.15;4.20;;;;;;;18.66;60.80;100362.81;5073675;28;20386;-57
2022/08/25 04:43:33;;;;;;;6.75;4.50;;;;;;;18.66;60.99;100365.63;5068800;28;20056;-57
2022/08/25 04:46:06;;;;;;;5.63;4.70;;;;;;;18.67;60.87;100364.47;5075579;28;20048;-57
2022/08/25 04:48:34;;;;;;;10.35;4.70;;;;;;;18.68;61.46;100359.63;5072928;28;20478;-57
2022/08/25 04:51:04;;;;;;;6.57;4.30;;;;;;;18.68;61.27;100362.44;5072592;28;20053;-57
2022/08/25 04:53:33;;;;;;;7.15;4.38;;;;;;;18.66;61.25;100368.44;5075679;28;20055;-57
2022/08/25 04:56:02;;;;;;;5.72;4.68;;;;;;;18.67;61.41;100358.81;5079925;28;20048;-57
2022/08/25 04:58:29;;;;;;;5.13;4.60;;;;;;;18.65;61.45;100361.19;5073339;28;20045;-57
2022/08/25 05:01:02;;;;;;;5.90;4.40;;;;;;;18.67;61.35;100363.66;5073662;28;20059;-57
2022/08/25 05:03:30;;;;;;;6.22;4.43;;;;;;;18.73;61.32;100366.97;5070787;28;20063;-57
2022/08/25 05:05:58;;;;;;;5.15;4.50;;;;;;;18.73;61.45;100367.81;5072547;28;20056;-57
2022/08/25 05:08:25;;;;;;;4.90;4.22;;;;;;;18.74;61.48;100365.78;5071416;28;20114;-58
2022/08/25 05:10:55;;;;;;;5.97;4.68;;;;;;;18.75;61.46;100367.41;5067042;28;20056;-59
2022/08/25 05:13:25;;;;;;;9.57;5.40;;;;;;;18.78;61.63;100375.16;5065587;28;20057;-57
2022/08/25 05:15:54;;;;;;;5.07;4.20;;;;;;;18.76;61.78;100371.88;5061491;28;20072;-57
2022/08/25 05:18:23;;;;;;;5.88;4.93;;;;;;;18.80;61.80;100367.97;5068312;28;20049;-58
2022/08/25 05:20:52;;;;;;;8.32;5.13;;;;;;;18.84;61.73;100368.84;5063508;28;20056;-57
2022/08/25 05:23:20;;;;;;;5.20;4.68;;;;;;;18.88;62.39;100380.22;5070414;28;20048;-49
2022/08/25 05:25:49;;;;;;;8.00;5.53;;;;;;;18.61;63.06;100376.41;5061534;28;20377;-49
2022/08/25 05:28:17;;;;;;;7.57;5.63;;;;;;;18.62;63.30;100380.84;5065006;28;20064;-52
2022/08/25 05:30:48;;;;;;;8.02;5.13;;;;;;;18.73;63.18;100378.25;5075363;28;20044;-49
2022/08/25 05:33:16;;;;;;;13.98;5.70;;;;;;;18.93;62.51;100368.63;5075731;28;20056;-52
2022/08/25 05:35:43;;;;;;;8.27;5.40;;;;;;;18.91;62.69;100367.38;5069511;28;20053;-48
2022/08/25 05:38:11;;;;;;;10.45;5.85;;;;;;;18.97;62.38;100366.69;5063472;28;20044;-51
2022/08/25 05:40:38;;;;;;;7.28;5.07;;;;;;;19.08;62.17;100364.03;5068748;28;20048;-51
2022/08/25 05:43:05;;;;;;;7.78;4.63;;;;;;;19.30;61.61;100367.25;5074042;28;20048;-51
2022/08/25 05:45:33;;;;;;;7.88;4.85;;;;;;;19.44;61.28;100356.19;5068849;28;20047;-51
2022/08/25 05:48:02;;;;;;;8.23;4.25;;;;;;;19.59;60.85;100360.91;5081209;28;20048;-48
2022/08/25 05:50:29;;;;;;;8.95;4.47;;;;;;;19.75;60.37;100359.97;5092279;28;20416;-49
2022/08/25 05:52:56;;;;;;;5.05;4.45;;;;;;;19.96;59.73;100360.28;5072178;28;20075;-50
2022/08/25 05:55:24;;;;;;;8.10;4.72;;;;;;;20.13;59.01;100358.91;5080403;28;20052;-51
2022/08/25 05:57:51;;;;;;;5.63;4.03;;;;;;;20.30;58.88;100359.56;5073677;28;20052;-48
2022/08/25 06:00:18;;;;;;;7.25;4.38;;;;;;;20.54;58.04;100353.41;5072616;28;20056;-50
2022/08/25 06:02:47;;;;;;;7.95;4.50;;;;;;;20.78;57.76;100349.25;5078587;28;20055;-49
2022/08/25 06:05:18;;;;;;;7.78;4.60;;;;;;;20.96;57.14;100345.81;5092323;28;20063;-51
2022/08/25 06:07:46;;;;;;;6.88;5.05;;;;;;;21.17;56.64;100348.06;5077470;28;20045;-51
2022/08/25 06:10:14;;;;;;;5.50;4.82;;;;;;;21.33;56.28;100345.75;5075913;28;20044;-51
2022/08/25 06:12:45;;;;;;;7.30;4.87;;;;;;;21.46;55.88;100349.13;5070847;28;20055;-49
2022/08/25 06:15:13;;;;;;;7.00;4.80;;;;;;;21.64;55.43;100343.63;5069147;28;20059;-48
2022/08/25 06:17:41;;;;;;;6.05;4.63;;;;;;;21.75;55.38;100341.66;5066664;28;21218;-50
2022/08/25 06:20:11;;;;;;;5.90;4.50;;;;;;;21.93;55.09;100336.13;5068095;28;20055;-49
2022/08/25 06:22:40;;;;;;;6.93;4.65;;;;;;;22.05;54.83;100337.84;5054209;28;20477;-49
2022/08/25 06:25:09;;;;;;;5.93;4.57;;;;;;;22.15;54.58;100339.88;5051363;28;20060;-51
2022/08/25 06:27:37;;;;;;;9.18;4.68;;;;;;;22.38;54.07;100338.81;5069010;28;20591;-61
2022/08/25 06:30:06;;;;;;;6.38;4.40;;;;;;;22.51;53.64;100342.97;5078863;28;20488;-59
2022/08/25 06:32:36;;;;;;;8.10;4.70;;;;;;;22.63;53.31;100353.94;5045881;28;20060;-60
2022/08/25 06:35:03;;;;;;;;;;;;;;;22.69;53.78;100343.81;5063846;28;20059;-60
2022/08/25 06:37:31;;;;;;;6.35;4.55;;;;;;;22.82;53.75;100354.81;5063716;28;19924;-60
2022/08/25 06:39:59;;;;;;;8.70;5.53;;;;;;;22.89;53.44;100349.97;5059842;28;20049;-59
2022/08/25 06:42:27;;;;;;;8.02;5.47;;;;;;;22.95;53.14;100353.25;5065757;28;20056;-61
2022/08/25 06:44:55;;;;;;;7.43;5.22;;;;;;;23.03;53.05;100352.03;5059745;28;20060;-61
2022/08/25 06:47:22;;;;;;;8.52;5.32;;;;;;;23.08;53.11;100351.66;5067924;28;20056;-60
2022/08/25 06:49:49;;;;;;;11.60;6.25;;;;;;;23.12;52.82;100356.53;5061581;28;20131;-59
2022/08/25 06:52:17;;;;;;;6.40;5.40;;;;;;;23.17;52.73;100356.94;5060760;28;20064;-59
2022/08/25 06:54:44;;;;;;;10.40;5.88;;;;;;;23.24;52.50;100356.13;5062653;28;20508;-59
2022/08/25 06:57:13;;;;;;;6.90;5.43;;;;;;;23.34;52.75;100346.81;5061663;28;20052;-61
2022/08/25 06:59:40;;;;;;;12.77;5.65;;;;;;;23.45;52.21;100356.16;5068631;28;20052;-59
2022/08/25 07:02:08;;;;;;;15.98;6.57;;;;;;;23.54;52.34;100352.94;5065494;28;20053;-59
2022/08/25 07:04:36;;;;;;;7.45;5.63;;;;;;;23.67;52.13;100359.00;5059147;28;20079;-59
2022/08/25 07:07:04;;;;;;;6.43;4.93;;;;;;;23.77;51.77;100352.53;5062843;28;20410;-59
2022/08/25 07:09:31;;;;;;;8.20;4.82;;;;;;;23.90;51.53;100362.25;5061281;28;20480;-60
2022/08/25 07:11:58;;;;;;;8.25;4.53;;;;;;;24.01;51.05;100352.91;5064905;28;20057;-60
2022/08/25 07:14:27;;;;;;;6.97;4.95;;;;;;;24.10;50.97;100354.06;5066678;28;20052;-60
2022/08/25 07:16:56;;;;;;;7.13;4.55;;;;;;;24.26;51.19;100355.69;5066912;28;20327;-61
2022/08/25 07:19:24;;;;;;;7.25;4.63;;;;;;;24.40;51.14;100360.50;5064149;28;20056;-61
2022/08/25 07:21:52;;;;;;;7.78;4.50;;;;;;;24.57;51.23;100358.84;5081385;28;20496;-60
2022/08/25 07:24:20;;;;;;;5.47;4.20;;;;;;;24.70;50.71;100357.97;5068147;28;20051;-60
2022/08/25 07:26:48;;;;;;;7.10;4.25;;;;;;;24.94;49.48;100355.41;5067790;28;20411;-60
2022/08/25 07:29:19;;;;;;;7.75;4.72;;;;;;;25.33;49.30;100360.06;5065568;28;20056;-60
2022/08/25 07:31:48;;;;;;;4.47;4.07;;;;;;;26.22;47.26;100354.78;5066003;28;20057;-60
2022/08/25 07:37:03;;;;;;;7.43;4.28;;;;;;;28.83;41.92;100348.91;5067481;28;20489;-60
2022/08/25 07:39:34;;;;;;;5.88;3.75;;;;;;;30.15;39.11;100353.47;5069943;28;20044;-61
2022/08/25 07:42:01;;;;;;;4.28;3.85;;;;;;;31.49;37.14;100349.06;5067843;28;20048;-61
2022/08/25 07:44:32;;;;;;;6.50;4.65;;;;;;;32.79;34.04;100338.69;5067236;28;20417;-61
2022/08/25 07:47:00;;;;;;;7.13;4.15;;;;;;;34.02;32.48;100338.13;5061869;28;20063;-60
2022/08/25 07:49:31;;;;;;;5.93;4.25;;;;;;;35.22;30.60;100338.78;5067088;28;20063;-60
2022/08/25 07:52:01;;;;;;;4.53;4.13;;;;;;;36.17;28.51;100340.13;5064490;28;20048;-60
2022/08/25 07:54:28;;;;;;;5.32;3.78;;;;;;;37.00;27.40;100338.50;5072773;28;20063;-59
2022/08/25 07:56:56;;;;;;;4.38;3.97;;;;;;;37.71;26.38;100332.75;5060411;28;20053;-60
2022/08/25 07:59:23;;;;;;;5.77;3.80;;;;;;;38.66;25.41;100315.66;5062037;28;20055;-60
2022/08/25 08:01:50;;;;;;;4.47;4.00;;;;;;;39.51;24.08;100316.34;5073807;28;20143;-60
2022/08/25 08:04:19;;;;;;;5.27;3.60;;;;;;;40.16;22.90;100310.53;5062957;28;20057;-60
2022/08/25 08:06:46;;;;;;;5.32;4.25;;;;;;;40.96;22.30;100321.03;5073958;28;20485;-59
2022/08/25 08:09:15;;;;;;;4.57;4.10;;;;;;;41.69;21.24;100320.16;5075963;28;20056;-60
2022/08/25 08:11:43;;;;;;;4.32;3.92;;;;;;;42.15;20.31;100309.06;5076915;28;20056;-60
2022/08/25 08:14:12;;;;;;;5.28;3.72;;;;;;;42.88;19.95;100310.72;5073356;28;20050;-60
2022/08/25 08:16:39;;;;;;;4.90;3.85;;;;;;;43.33;19.14;100314.03;5072283;28;20089;-60
2022/08/25 08:19:06;;;;;;;6.40;3.72;;;;;;;42.28;19.57;100317.25;5072038;28;20102;-59
2022/08/25 08:21:36;;;;;;;5.55;3.42;;;;;;;42.02;19.75;100300.88;5072847;28;20045;-59
2022/08/25 08:24:04;;;;;;;5.00;3.40;;;;;;;42.07;19.79;100305.91;5091869;28;20496;-60
2022/08/25 08:26:34;;;;;;;3.90;3.35;;;;;;;42.23;19.54;100312.97;5068474;28;20048;-60
2022/08/25 08:29:02;;;;;;;4.75;3.40;;;;;;;42.61;19.41;100301.59;5073342;28;20055;-60
2022/08/25 08:31:29;;;;;;;4.60;3.38;;;;;;;43.24;18.54;100302.66;5081682;28;20044;-60
2022/08/25 08:36:40;;;;;;;4.07;3.50;;;;;;;44.15;17.46;100302.41;5073200;28;20063;-61
2022/08/25 08:39:07;;;;;;;4.97;3.53;;;;;;;44.33;17.64;100295.72;5088265;28;20056;-60
2022/08/25 08:44:41;;;;;;;3.50;3.20;;;;;;;46.69;15.62;100294.59;5074690;28;20417;-60
2022/08/25 08:47:20;;;;;;;3.75;3.13;;;;;;;46.97;15.52;100285.81;5073462;28;20052;-60
2022/08/25 08:49:55;;;;;;;4.20;3.80;;;;;;;48.43;14.47;100274.06;5062802;28;20544;-60
2022/08/25 08:52:37;;;;;;;4.75;3.63;;;;;;;46.27;15.09;100289.41;5069052;28;20048;-60
2022/08/25 08:55:14;;;;;;;5.03;3.47;;;;;;;46.10;15.16;100280.19;5070530;28;20044;-61
2022/08/25 08:57:47;;;;;;;4.07;3.20;;;;;;;47.73;14.78;100275.16;5061427;28;20409;-60
2022/08/25 09:00:16;;;;;;;3.97;3.58;;;;;;;47.74;14.45;100268.66;5056691;28;20048;-60
2022/08/25 09:02:54;;;;;;;4.28;3.88;;;;;;;46.87;15.33;100263.31;5068173;28;20481;-60
2022/08/25 09:05:32;;;;;;;4.97;3.42;;;;;;;46.56;15.63;100257.16;5067179;28;20057;-61
2022/08/25 09:08:05;;;;;;;4.78;3.35;;;;;;;47.76;14.27;100254.13;5063545;28;20049;-61
2022/08/25 09:10:43;;;;;;;3.88;3.30;;;;;;;48.53;13.54;100262.44;5055168;28;20124;-60
2022/08/25 09:13:19;;;;;;;4.18;3.78;;;;;;;48.34;14.09;100254.75;5055124;28;20064;-60
2022/08/25 09:18:50;;;;;;;3.75;3.28;;;;;;;48.70;12.98;100255.97;5054227;28;20060;-60
2022/08/25 09:21:30;;;;;;;5.57;3.60;;;;;;;49.12;13.12;100255.56;5058163;28;20516;-60
2022/08/25 09:24:21;;;;;;;6.10;3.58;;;;;;;48.42;13.52;100256.91;5070333;28;20067;-60
2022/08/25 09:26:58;;;;;;;4.22;3.83;;;;;;;47.78;13.96;100256.50;5061890;28;20421;-59
2022/08/25 09:29:45;;;;;;;4.40;4.00;;;;;;;48.18;13.83;100256.06;5062594;28;20055;-59
2022/08/25 09:32:15;;;;;;;3.83;3.53;;;;;;;49.60;12.38;100246.81;5069489;28;20048;-60
2022/08/25 09:34:45;;;;;;;3.63;3.33;;;;;;;50.86;12.19;100247.09;5068452;28;20052;-59
2022/08/25 09:37:12;;;;;;;3.80;3.50;;;;;;;51.40;12.18;100244.38;5065833;28;20052;-59
2022/08/25 09:39:41;;;;;;;3.67;3.38;;;;;;;50.91;11.25;100237.19;5065250;28;20086;-61
2022/08/25 09:42:11;;;;;;;3.50;3.20;;;;;;;50.83;12.05;100233.50;5070003;28;20079;-59
2022/08/25 09:44:42;;;;;;;4.30;3.40;;;;;;;50.90;11.13;100220.75;5065121;28;20056;-59
2022/08/25 09:47:21;;;;;;;4.28;3.47;;;;;;;51.59;10.83;100219.25;5061304;28;20075;-60
2022/08/25 09:49:53;;;;;;;4.18;3.40;;;;;;;51.03;11.00;100216.66;5062130;28;20049;-59
2022/08/25 09:52:25;;;;;;;5.80;2.78;;;;;;;50.46;10.70;100218.34;5058292;28;20461;-60
2022/08/25 09:55:00;;;;;;;4.63;3.50;;;;;;;49.19;12.15;100216.34;5059818;28;20056;-60
2022/08/25 09:57:31;;;;;;;3.92;3.58;;;;;;;50.22;11.60;100214.75;5064507;28;20052;-59
2022/08/25 10:00:15;;;;;;;3.63;3.30;;;;;;;51.99;10.65;100200.31;5071643;28;20146;-60
2022/08/25 10:02:43;;;;;;;4.05;3.03;;;;;;;52.17;10.01;100195.91;5065981;28;20049;-60
2022/08/25 10:05:22;;;;;;;4.22;3.13;;;;;;;51.92;9.58;100196.84;5071923;28;20056;-60
2022/08/25 10:07:54;;;;;;;3.92;3.58;;;;;;;51.26;10.56;100195.69;5063718;28;20071;-59
2022/08/25 10:10:31;;;;;;;3.63;3.33;;;;;;;50.15;10.73;100197.78;5051306;28;20052;-59
2022/08/25 10:13:00;;;;;;;4.30;3.28;;;;;;;50.70;11.43;100181.97;5063412;28;20052;-59
2022/08/25 10:15:31;;;;;;;3.50;3.20;;;;;;;50.42;10.69;100182.41;5057165;28;20053;-59
2022/08/25 10:18:21;;;;;;;3.78;3.45;;;;;;;51.61;10.09;100174.88;5052277;28;20056;-59
2022/08/25 10:21:13;;;;;;;3.50;3.15;;;;;;;52.50;9.59;100168.81;5089990;28;20056;-59
2022/08/25 10:23:46;;;;;;;4.15;3.25;;;;;;;52.32;9.48;100171.09;5081662;28;20059;-60
2022/08/25 10:26:23;;;;;;;3.42;3.13;;;;;;;51.28;9.57;100172.88;5081892;28;20049;-60
2022/08/25 10:29:03;;;;;;;3.45;3.15;;;;;;;49.96;10.81;100172.44;5078277;28;20060;-60
2022/08/25 10:31:35;;;;;;;3.42;3.13;;;;;;;50.87;10.31;100163.44;5087586;28;20287;-59
2022/08/25 10:34:18;;;;;;;3.75;3.45;;;;;;;52.19;10.23;100160.41;5085322;28;20052;-59
2022/08/25 10:36:56;;;;;;;3.63;2.97;;;;;;;53.28;9.28;100157.06;5095760;28;20771;-59
2022/08/25 10:39:38;;;;;;;3.33;2.95;;;;;;;53.90;8.88;100150.59;5102356;28;20059;-59
2022/08/25 10:42:28;;;;;;;3.50;3.20;;;;;;;54.53;9.21;100142.50;5091660;28;20055;-59
2022/08/25 10:48:18;;;;;;;3.80;3.40;;;;;;;55.26;8.21;100128.94;5099809;28;20499;-59
2022/08/25 10:50:52;;;;;;;6.78;3.80;;;;;;;55.68;7.68;100130.25;5087629;28;20047;-59
2022/08/25 10:53:29;;;;;;;4.03;3.45;;;;;;;55.96;8.19;100139.53;5103754;28;20440;-59
2022/08/25 10:56:04;;;;;;;3.63;3.33;;;;;;;56.43;8.04;100129.81;5096535;28;20481;-59
2022/08/25 10:58:54;;;;;;;3.80;3.05;;;;;;;56.71;7.44;100119.66;5091671;28;20048;-59
2022/08/25 11:01:36;;;;;;;4.18;3.50;;;;;;;55.99;8.16;100120.31;5084791;28;20044;-59
2022/08/25 11:04:07;;;;;;;4.38;3.50;;;;;;;53.27;9.37;100119.78;5099261;28;20047;-61
2022/08/25 11:06:40;;;;;;;4.53;3.40;;;;;;;52.80;9.56;100119.09;5085147;28;20055;-59
2022/08/25 11:09:15;;;;;;;5.03;3.65;;;;;;;53.30;9.45;100109.59;5097579;28;20052;-60
2022/08/25 11:11:50;;;;;;;4.25;3.60;;;;;;;52.27;9.79;100115.69;5089548;28;20044;-60
2022/08/25 11:14:23;;;;;;;3.72;3.42;;;;;;;52.66;9.61;100100.94;5085891;28;20500;-60
2022/08/25 11:16:53;;;;;;;3.92;3.53;;;;;;;52.59;9.67;100104.81;5077713;28;20054;-59
2022/08/25 11:19:26;;;;;;;3.58;3.28;;;;;;;52.99;10.03;100101.31;5092951;28;20059;-60
2022/08/25 11:22:03;;;;;;;4.00;3.60;;;;;;;53.82;9.29;100106.06;5091867;28;20055;-58
2022/08/25 11:24:42;;;;;;;3.97;3.67;;;;;;;54.50;8.73;100110.94;5085412;28;20055;-60
2022/08/25 11:27:18;;;;;;;4.82;3.53;;;;;;;54.94;8.18;100100.59;5092544;28;20051;-60
2022/08/25 11:29:56;;;;;;;3.70;3.40;;;;;;;55.02;8.55;100095.16;5082705;28;20074;-59
2022/08/25 11:32:24;;;;;;;6.90;3.20;;;;;;;55.28;8.00;100093.22;5087081;28;20049;-59
2022/08/25 11:34:53;;;;;;;3.40;3.10;;;;;;;55.26;8.60;100092.31;5093157;28;20055;-60
2022/08/25 11:37:25;;;;;;;6.32;3.50;;;;;;;54.66;8.23;100090.44;5093179;28;20055;-59
2022/08/25 11:40:20;;;;;;;5.00;3.97;;;;;;;54.87;8.11;100089.66;5085026;28;20052;-58
2022/08/25 11:43:00;;;;;;;5.10;3.67;;;;;;;54.38;8.50;100095.16;5091340;28;20431;-59
2022/08/25 11:45:53;;;;;;;4.00;3.60;;;;;;;54.12;8.82;100092.63;5091360;28;20051;-60
2022/08/25 11:48:31;;;;;;;4.18;3.22;;;;;;;52.20;9.65;100095.81;5086547;28;20492;-60
2022/08/25 11:51:03;;;;;;;5.40;3.47;;;;;;;51.70;10.20;100096.94;5081826;28;20052;-60
2022/08/25 11:53:33;;;;;;;2.97;2.67;;;;;;;50.86;10.21;100104.72;5094703;28;20044;-60
2022/08/25 11:56:04;;;;;;;5.30;3.20;;;;;;;49.85;10.56;100095.09;5095933;28;20056;-59
2022/08/25 11:58:39;;;;;;;4.05;3.45;;;;;;;49.20;11.64;100089.88;5107103;28;20048;-58
2022/08/25 12:01:11;;;;;;;4.35;3.30;;;;;;;49.90;10.71;100082.22;5091813;28;20052;-60